TimeCDT,TemperatureF,Dew PointF,Humidity,Sea Level PressureIn,VisibilityMPH,Wind Direction,Wind SpeedMPH,Gust SpeedMPH,PrecipitationIn,Events,Conditions,WindDirDegrees,DateUTC
12:58 AM,57.2,48.2,72,30.06,10.0,NNW,3.5,-,N/A,,Clear,330,2013-04-03 05:58:00
1:58 AM,55.2,49.1,80,30.04,10.0,NNE,4.6,-,N/A,,Mostly Cloudy,30,2013-04-03 06:58:00
2:58 AM,56.1,48.9,77,30.01,10.0,NNE,6.9,-,N/A,,Mostly Cloudy,30,2013-04-03 07:58:00
3:58 AM,56.7,46.6,69,30.01,10.0,NE,12.7,-,N/A,,Mostly Cloudy,40,2013-04-03 08:58:00
4:58 AM,55.8,45.9,69,30.04,10.0,NE,10.4,-,N/A,,Scattered Clouds,50,2013-04-03 09:58:00
5:58 AM,56.3,43.0,61,30.04,10.0,NNE,10.4,-,N/A,,Mostly Cloudy,30,2013-04-03 10:58:00
6:58 AM,56.3,41.2,57,30.04,10.0,NE,10.4,-,N/A,,Overcast,50,2013-04-03 11:58:00
7:58 AM,57.4,39.4,51,30.06,10.0,NE,10.4,-,N/A,,Mostly Cloudy,50,2013-04-03 12:58:00
8:58 AM,57.7,39.7,51,30.09,10.0,ENE,6.9,-,N/A,,Mostly Cloudy,60,2013-04-03 13:58:00
9:58 AM,58.5,39.2,49,30.07,10.0,NE,10.4,-,N/A,,Mostly Cloudy,50,2013-04-03 14:58:00
10:58 AM,59.4,39.7,48,30.11,10.0,North,2.3,-,N/A,,Clear,360,2013-04-03 15:58:00
11:09 AM,59.0,39.2,48,30.09,10.0,NNE,4.6,-,N/A,,Light Drizzle,20,2013-04-03 16:09:00
11:58 AM,58.3,43.7,58,30.12,10.0,NNE,4.6,-,0.00,Rain,Light Rain,20,2013-04-03 16:58:00
12:49 PM,57.2,48.2,72,30.12,5.0,NE,2.3,-,N/A,Rain,Rain,40,2013-04-03 17:49:00
12:58 PM,55.8,49.1,78,30.13,4.0,NE,4.6,-,0.07,Rain,Rain,40,2013-04-03 17:58:00
1:58 PM,54.7,51.1,88,30.10,9.0,NE,6.9,-,0.08,Rain,Light Rain,40,2013-04-03 18:58:00
2:58 PM,54.5,52.0,91,30.07,9.0,NNE,8.1,-,0.06,Rain,Light Rain,30,2013-04-03 19:58:00
3:58 PM,55.4,54.0,95,30.00,8.0,East,12.7,-,0.02,,Light Drizzle,100,2013-04-03 20:58:00
4:10 PM,55.4,53.6,94,29.91,10.0,East,17.3,26.5,N/A,,Partly Cloudy,90,2013-04-03 21:10:00
4:18 PM,55.4,53.6,94,29.90,10.0,East,15.0,26.5,N/A,,Scattered Clouds,90,2013-04-03 21:18:00
4:58 PM,57.2,54.9,92,29.94,10.0,East,10.4,-,0.00,,Clear,80,2013-04-03 21:58:00
5:58 PM,56.8,54.5,92,29.93,10.0,NE,16.1,-,N/A,,Clear,50,2013-04-03 22:58:00
6:18 PM,57.2,55.4,94,29.92,10.0,NE,13.8,-,N/A,,Mostly Cloudy,50,2013-04-03 23:18:00
6:58 PM,57.4,55.0,92,29.95,10.0,NE,15.0,-,N/A,,Overcast,50,2013-04-03 23:58:00
7:23 PM,57.2,53.6,88,29.95,10.0,NE,17.3,23.0,N/A,,Overcast,50,2013-04-04 00:23:00
7:43 PM,57.2,53.6,88,29.95,10.0,NE,16.1,-,N/A,,Overcast,50,2013-04-04 00:43:00
7:53 PM,57.2,53.6,88,29.95,10.0,NE,13.8,23.0,N/A,,Overcast,50,2013-04-04 00:53:00
7:58 PM,56.8,54.0,90,29.97,10.0,NE,12.7,23.0,N/A,,Overcast,50,2013-04-04 00:58:00
8:58 PM,57.4,54.9,91,30.00,10.0,ENE,17.3,24.2,N/A,,Overcast,60,2013-04-04 01:58:00
9:28 PM,57.2,55.4,94,30.00,10.0,ENE,12.7,19.6,N/A,,Overcast,60,2013-04-04 02:28:00
9:58 PM,57.9,54.9,90,30.02,10.0,ENE,10.4,-,0.01,,Overcast,60,2013-04-04 02:58:00
10:08 PM,57.2,55.4,94,30.01,10.0,ENE,11.5,-,N/A,,Overcast,60,2013-04-04 03:08:00
10:38 PM,57.2,55.4,94,30.00,10.0,ENE,8.1,-,N/A,,Overcast,60,2013-04-04 03:38:00
10:55 PM,57.2,55.4,94,30.00,10.0,ENE,6.9,-,N/A,,Overcast,60,2013-04-04 03:55:00
11:24 PM,57.2,55.4,94,29.99,8.0,NE,10.4,-,N/A,,Light Drizzle,40,2013-04-04 04:24:00
11:46 PM,57.2,55.4,94,29.99,7.0,NE,8.1,-,N/A,,Overcast,50,2013-04-04 04:46:00
11:56 PM,57.2,55.4,94,29.99,6.0,NE,6.9,-,N/A,,Overcast,40,2013-04-04 04:56:00
11:58 PM,57.7,56.3,95,30.00,6.0,NE,9.2,-,0.00,,Overcast,40,2013-04-04 04:58:00
11:59 PM,57.2,57.2,100,29.99,6.0,NE,9.2,-,N/A,Rain,Light Rain,40,2013-04-04 04:59:00